Terminal Aerodrome Forecast
Issued by NWS

Home | Current Version | Previous Version | Text Only | Print | Product List | Glossary On
Versions: 1 2 3 4 5 6 7 8 9 10 11 12 13 14 15
063
FTUS45 KPIH 232320
TAFSUN
TAF
KSUN 232320Z 2400/2506 13007KT P6SM SCT080
     FM240400 30006KT P6SM SCT040 BKN060
     FM241000 32008KT P6SM VCSH SCT030 OVC040
     FM241800 14007KT 3SM -SN BR BKN015 OVC025
     FM242000 20007KT 1SM -SN BR OVC010=

USA.gov is the U.S. government's official web portal to all federal, state and local government web resources and services.